sensor_id;sensor_type;location;lat;lon;timestamp;P1;durP1;ratioP1;P2;durP2;ratioP2
24206;SDS011;12351;52.284;9.160;2023-05-21T00:00:50;7.60;;;5.60;;
24206;SDS011;12351;52.284;9.160;2023-05-21T00:03:41;8.63;;;5.40;;
24206;SDS011;12351;52.284;9.160;2023-05-21T00:06:32;6.15;;;5.55;;
24206;SDS011;12351;52.284;9.160;2023-05-21T00:09:21;5.92;;;5.30;;
24206;SDS011;12351;52.284;9.160;2023-05-21T00:12:14;6.80;;;5.30;;
24206;SDS011;12351;52.284;9.160;2023-05-21T00:15:04;6.05;;;5.00;;
24206;SDS011;12351;52.284;9.160;2023-05-21T00:17:52;8.13;;;5.80;;
24206;SDS011;12351;52.284;9.160;2023-05-21T00:20:44;5.67;;;4.97;;
24206;SDS011;12351;52.284;9.160;2023-05-21T00:23:35;6.80;;;5.67;;
24206;SDS011;12351;52.284;9.160;2023-05-21T00:26:26;8.50;;;5.58;;
24206;SDS011;12351;52.284;9.160;2023-05-21T00:29:14;7.90;;;5.55;;
24206;SDS011;12351;52.284;9.160;2023-05-21T00:32:06;6.70;;;5.97;;
24206;SDS011;12351;52.284;9.160;2023-05-21T00:34:57;7.03;;;5.90;;
24206;SDS011;12351;52.284;9.160;2023-05-21T00:37:47;7.45;;;5.35;;
24206;SDS011;12351;52.284;9.160;2023-05-21T00:40:38;8.40;;;6.15;;
24206;SDS011;12351;52.284;9.160;2023-05-21T00:43:25;6.37;;;5.67;;
24206;SDS011;12351;52.284;9.160;2023-05-21T00:46:17;7.10;;;6.40;;
24206;SDS011;12351;52.284;9.160;2023-05-21T00:49:07;7.17;;;5.87;;
24206;SDS011;12351;52.284;9.160;2023-05-21T00:51:58;6.12;;;5.50;;
24206;SDS011;12351;52.284;9.160;2023-05-21T00:54:51;7.30;;;5.58;;
24206;SDS011;12351;52.284;9.160;2023-05-21T00:57:41;6.12;;;5.37;;
24206;SDS011;12351;52.284;9.160;2023-05-21T01:00:33;8.58;;;5.40;;
24206;SDS011;12351;52.284;9.160;2023-05-21T01:03:22;8.45;;;5.70;;
24206;SDS011;12351;52.284;9.160;2023-05-21T01:06:14;7.37;;;5.83;;
24206;SDS011;12351;52.284;9.160;2023-05-21T01:09:04;7.67;;;6.10;;
24206;SDS011;12351;52.284;9.160;2023-05-21T01:11:53;6.80;;;5.75;;
24206;SDS011;12351;52.284;9.160;2023-05-21T01:14:42;6.55;;;5.67;;
24206;SDS011;12351;52.284;9.160;2023-05-21T01:17:34;7.03;;;5.92;;
24206;SDS011;12351;52.284;9.160;2023-05-21T01:20:23;6.95;;;6.05;;
24206;SDS011;12351;52.284;9.160;2023-05-21T01:23:18;7.22;;;6.05;;
24206;SDS011;12351;52.284;9.160;2023-05-21T01:26:09;6.50;;;5.80;;
24206;SDS011;12351;52.284;9.160;2023-05-21T01:28:59;6.62;;;5.90;;
24206;SDS011;12351;52.284;9.160;2023-05-21T01:31:51;6.85;;;5.67;;
24206;SDS011;12351;52.284;9.160;2023-05-21T01:34:42;6.67;;;5.97;;
24206;SDS011;12351;52.284;9.160;2023-05-21T01:37:30;7.05;;;5.87;;
24206;SDS011;12351;52.284;9.160;2023-05-21T01:43:11;6.60;;;5.45;;
24206;SDS011;12351;52.284;9.160;2023-05-21T01:46:02;7.87;;;5.90;;
24206;SDS011;12351;52.284;9.160;2023-05-21T01:48:56;8.60;;;6.35;;
24206;SDS011;12351;52.284;9.160;2023-05-21T01:51:48;8.18;;;5.85;;
24206;SDS011;12351;52.284;9.160;2023-05-21T01:54:39;7.92;;;6.25;;
24206;SDS011;12351;52.284;9.160;2023-05-21T01:57:29;6.65;;;5.95;;
24206;SDS011;12351;52.284;9.160;2023-05-21T02:00:21;7.10;;;5.50;;
24206;SDS011;12351;52.284;9.160;2023-05-21T02:03:13;8.38;;;6.60;;
24206;SDS011;12351;52.284;9.160;2023-05-21T02:06:02;7.25;;;6.10;;
24206;SDS011;12351;52.284;9.160;2023-05-21T02:08:53;7.03;;;6.15;;
24206;SDS011;12351;52.284;9.160;2023-05-21T02:17:31;8.20;;;6.55;;
24206;SDS011;12351;52.284;9.160;2023-05-21T02:23:13;8.78;;;6.50;;
24206;SDS011;12351;52.284;9.160;2023-05-21T02:26:05;11.75;;;6.45;;
24206;SDS011;12351;52.284;9.160;2023-05-21T02:28:55;7.33;;;6.22;;
24206;SDS011;12351;52.284;9.160;2023-05-21T02:31:44;8.53;;;6.30;;
24206;SDS011;12351;52.284;9.160;2023-05-21T02:34:35;7.90;;;5.90;;
24206;SDS011;12351;52.284;9.160;2023-05-21T02:37:26;7.40;;;5.95;;
24206;SDS011;12351;52.284;9.160;2023-05-21T02:40:17;7.37;;;6.30;;
24206;SDS011;12351;52.284;9.160;2023-05-21T02:43:10;7.67;;;6.20;;
24206;SDS011;12351;52.284;9.160;2023-05-21T02:46:00;8.85;;;6.65;;
24206;SDS011;12351;52.284;9.160;2023-05-21T02:48:51;7.20;;;6.30;;
24206;SDS011;12351;52.284;9.160;2023-05-21T02:51:39;6.70;;;5.47;;
24206;SDS011;12351;52.284;9.160;2023-05-21T02:54:29;7.00;;;5.53;;
24206;SDS011;12351;52.284;9.160;2023-05-21T02:57:20;6.75;;;5.62;;
24206;SDS011;12351;52.284;9.160;2023-05-21T03:00:09;6.50;;;5.80;;
24206;SDS011;12351;52.284;9.160;2023-05-21T03:02:58;6.30;;;5.53;;
24206;SDS011;12351;52.284;9.160;2023-05-21T03:05:50;6.53;;;5.83;;
24206;SDS011;12351;52.284;9.160;2023-05-21T03:08:38;6.92;;;6.17;;
24206;SDS011;12351;52.284;9.160;2023-05-21T03:11:28;7.50;;;5.92;;
24206;SDS011;12351;52.284;9.160;2023-05-21T03:14:19;6.92;;;5.90;;
24206;SDS011;12351;52.284;9.160;2023-05-21T03:17:11;8.10;;;6.10;;
24206;SDS011;12351;52.284;9.160;2023-05-21T03:20:00;6.65;;;5.60;;
24206;SDS011;12351;52.284;9.160;2023-05-21T03:22:53;7.17;;;5.60;;
24206;SDS011;12351;52.284;9.160;2023-05-21T03:25:42;7.47;;;6.12;;
24206;SDS011;12351;52.284;9.160;2023-05-21T03:28:34;6.33;;;5.67;;
24206;SDS011;12351;52.284;9.160;2023-05-21T03:31:27;6.72;;;5.58;;
24206;SDS011;12351;52.284;9.160;2023-05-21T03:34:15;6.35;;;5.75;;
24206;SDS011;12351;52.284;9.160;2023-05-21T03:37:06;8.13;;;5.83;;
24206;SDS011;12351;52.284;9.160;2023-05-21T03:39:56;8.75;;;6.12;;
24206;SDS011;12351;52.284;9.160;2023-05-21T03:42:47;6.83;;;6.00;;
24206;SDS011;12351;52.284;9.160;2023-05-21T03:45:34;7.22;;;5.37;;
24206;SDS011;12351;52.284;9.160;2023-05-21T03:48:25;6.50;;;5.75;;
24206;SDS011;12351;52.284;9.160;2023-05-21T03:51:14;7.15;;;5.70;;
24206;SDS011;12351;52.284;9.160;2023-05-21T03:54:10;6.83;;;5.90;;
24206;SDS011;12351;52.284;9.160;2023-05-21T03:56:59;7.28;;;5.78;;
24206;SDS011;12351;52.284;9.160;2023-05-21T03:59:49;7.75;;;6.17;;
24206;SDS011;12351;52.284;9.160;2023-05-21T04:02:39;7.90;;;5.72;;
24206;SDS011;12351;52.284;9.160;2023-05-21T04:05:28;8.48;;;5.12;;
24206;SDS011;12351;52.284;9.160;2023-05-21T04:08:19;7.97;;;5.58;;
24206;SDS011;12351;52.284;9.160;2023-05-21T04:11:11;8.03;;;5.60;;
24206;SDS011;12351;52.284;9.160;2023-05-21T04:14:02;6.47;;;5.37;;
24206;SDS011;12351;52.284;9.160;2023-05-21T04:16:53;7.67;;;5.50;;
24206;SDS011;12351;52.284;9.160;2023-05-21T04:19:44;7.53;;;5.35;;
24206;SDS011;12351;52.284;9.160;2023-05-21T04:22:36;8.63;;;5.90;;
24206;SDS011;12351;52.284;9.160;2023-05-21T04:25:27;7.58;;;5.70;;
24206;SDS011;12351;52.284;9.160;2023-05-21T04:28:17;6.40;;;5.33;;
24206;SDS011;12351;52.284;9.160;2023-05-21T04:31:07;6.53;;;5.40;;
24206;SDS011;12351;52.284;9.160;2023-05-21T04:33:59;8.15;;;5.70;;
24206;SDS011;12351;52.284;9.160;2023-05-21T04:36:46;7.40;;;5.40;;
24206;SDS011;12351;52.284;9.160;2023-05-21T04:39:37;6.30;;;5.50;;
24206;SDS011;12351;52.284;9.160;2023-05-21T04:42:27;6.78;;;5.17;;
24206;SDS011;12351;52.284;9.160;2023-05-21T04:45:18;8.85;;;5.58;;
24206;SDS011;12351;52.284;9.160;2023-05-21T04:48:07;8.05;;;5.10;;
24206;SDS011;12351;52.284;9.160;2023-05-21T04:50:57;7.50;;;5.30;;
24206;SDS011;12351;52.284;9.160;2023-05-21T04:53:47;7.42;;;5.55;;
24206;SDS011;12351;52.284;9.160;2023-05-21T04:56:39;6.28;;;5.08;;
24206;SDS011;12351;52.284;9.160;2023-05-21T04:59:31;6.33;;;5.40;;
24206;SDS011;12351;52.284;9.160;2023-05-21T05:02:18;8.45;;;5.50;;
24206;SDS011;12351;52.284;9.160;2023-05-21T05:05:09;6.40;;;5.50;;
24206;SDS011;12351;52.284;9.160;2023-05-21T05:08:00;8.15;;;5.60;;
24206;SDS011;12351;52.284;9.160;2023-05-21T05:10:50;7.22;;;6.00;;
24206;SDS011;12351;52.284;9.160;2023-05-21T05:13:43;7.65;;;5.47;;
24206;SDS011;12351;52.284;9.160;2023-05-21T05:16:31;8.50;;;5.72;;
24206;SDS011;12351;52.284;9.160;2023-05-21T05:19:22;6.78;;;5.35;;
24206;SDS011;12351;52.284;9.160;2023-05-21T05:22:13;6.42;;;5.42;;
24206;SDS011;12351;52.284;9.160;2023-05-21T05:25:06;10.80;;;5.83;;
24206;SDS011;12351;52.284;9.160;2023-05-21T05:27:54;6.78;;;5.33;;
24206;SDS011;12351;52.284;9.160;2023-05-21T05:30:45;9.18;;;5.85;;
24206;SDS011;12351;52.284;9.160;2023-05-21T05:33:35;8.63;;;5.40;;
24206;SDS011;12351;52.284;9.160;2023-05-21T05:36:24;6.33;;;5.50;;
24206;SDS011;12351;52.284;9.160;2023-05-21T05:39:17;8.28;;;5.28;;
24206;SDS011;12351;52.284;9.160;2023-05-21T05:42:05;8.03;;;5.95;;
24206;SDS011;12351;52.284;9.160;2023-05-21T05:44:58;10.00;;;5.75;;
24206;SDS011;12351;52.284;9.160;2023-05-21T05:47:46;9.60;;;5.55;;
24206;SDS011;12351;52.284;9.160;2023-05-21T05:50:39;7.97;;;6.05;;
24206;SDS011;12351;52.284;9.160;2023-05-21T05:53:25;7.17;;;5.78;;
24206;SDS011;12351;52.284;9.160;2023-05-21T05:56:16;7.50;;;5.78;;
24206;SDS011;12351;52.284;9.160;2023-05-21T05:59:08;6.55;;;5.35;;
24206;SDS011;12351;52.284;9.160;2023-05-21T06:01:57;9.43;;;5.75;;
24206;SDS011;12351;52.284;9.160;2023-05-21T06:04:51;6.97;;;5.33;;
24206;SDS011;12351;52.284;9.160;2023-05-21T06:07:40;8.20;;;5.35;;
24206;SDS011;12351;52.284;9.160;2023-05-21T06:10:32;6.45;;;5.30;;
24206;SDS011;12351;52.284;9.160;2023-05-21T06:13:24;6.85;;;5.17;;
24206;SDS011;12351;52.284;9.160;2023-05-21T06:16:14;6.47;;;5.40;;
24206;SDS011;12351;52.284;9.160;2023-05-21T06:19:04;8.23;;;5.30;;
24206;SDS011;12351;52.284;9.160;2023-05-21T06:21:52;7.08;;;5.37;;
24206;SDS011;12351;52.284;9.160;2023-05-21T06:24:45;8.48;;;5.87;;
24206;SDS011;12351;52.284;9.160;2023-05-21T06:27:35;6.45;;;5.55;;
24206;SDS011;12351;52.284;9.160;2023-05-21T06:30:23;7.85;;;6.40;;
24206;SDS011;12351;52.284;9.160;2023-05-21T06:33:13;7.83;;;5.95;;
24206;SDS011;12351;52.284;9.160;2023-05-21T06:36:07;8.35;;;6.30;;
24206;SDS011;12351;52.284;9.160;2023-05-21T06:38:55;10.43;;;6.70;;
24206;SDS011;12351;52.284;9.160;2023-05-21T06:41:45;10.00;;;6.50;;
24206;SDS011;12351;52.284;9.160;2023-05-21T06:44:39;10.60;;;7.05;;
24206;SDS011;12351;52.284;9.160;2023-05-21T06:47:30;9.75;;;6.67;;
24206;SDS011;12351;52.284;9.160;2023-05-21T06:50:21;8.03;;;6.80;;
24206;SDS011;12351;52.284;9.160;2023-05-21T06:53:09;9.73;;;6.92;;
24206;SDS011;12351;52.284;9.160;2023-05-21T06:56:00;10.48;;;6.55;;
24206;SDS011;12351;52.284;9.160;2023-05-21T06:58:49;9.23;;;6.97;;
24206;SDS011;12351;52.284;9.160;2023-05-21T07:01:41;9.35;;;7.10;;
24206;SDS011;12351;52.284;9.160;2023-05-21T07:04:29;10.13;;;6.70;;
24206;SDS011;12351;52.284;9.160;2023-05-21T07:07:20;11.15;;;7.05;;
24206;SDS011;12351;52.284;9.160;2023-05-21T07:10:10;15.08;;;7.67;;
24206;SDS011;12351;52.284;9.160;2023-05-21T07:12:58;9.43;;;6.97;;
24206;SDS011;12351;52.284;9.160;2023-05-21T07:15:47;8.85;;;6.97;;
24206;SDS011;12351;52.284;9.160;2023-05-21T07:18:39;10.20;;;7.30;;
24206;SDS011;12351;52.284;9.160;2023-05-21T07:21:29;9.48;;;7.37;;
24206;SDS011;12351;52.284;9.160;2023-05-21T07:24:19;9.65;;;7.40;;
24206;SDS011;12351;52.284;9.160;2023-05-21T07:27:11;10.15;;;7.85;;
24206;SDS011;12351;52.284;9.160;2023-05-21T07:30:03;12.15;;;7.92;;
24206;SDS011;12351;52.284;9.160;2023-05-21T07:32:52;9.75;;;8.00;;
24206;SDS011;12351;52.284;9.160;2023-05-21T07:35:44;10.45;;;8.00;;
24206;SDS011;12351;52.284;9.160;2023-05-21T07:38:33;12.60;;;8.53;;
24206;SDS011;12351;52.284;9.160;2023-05-21T07:41:25;11.53;;;8.40;;
24206;SDS011;12351;52.284;9.160;2023-05-21T07:44:13;10.60;;;8.40;;
24206;SDS011;12351;52.284;9.160;2023-05-21T07:47:05;9.88;;;8.60;;
24206;SDS011;12351;52.284;9.160;2023-05-21T07:49:52;12.07;;;8.40;;
24206;SDS011;12351;52.284;9.160;2023-05-21T07:52:44;11.40;;;8.80;;
24206;SDS011;12351;52.284;9.160;2023-05-21T07:55:33;12.73;;;8.75;;
24206;SDS011;12351;52.284;9.160;2023-05-21T07:58:26;11.65;;;8.58;;
24206;SDS011;12351;52.284;9.160;2023-05-21T08:01:16;12.30;;;9.55;;
24206;SDS011;12351;52.284;9.160;2023-05-21T08:04:05;13.40;;;9.90;;
24206;SDS011;12351;52.284;9.160;2023-05-21T08:06:56;12.75;;;10.18;;
24206;SDS011;12351;52.284;9.160;2023-05-21T08:09:48;11.68;;;9.53;;
24206;SDS011;12351;52.284;9.160;2023-05-21T08:12:38;13.65;;;10.10;;
24206;SDS011;12351;52.284;9.160;2023-05-21T08:15:30;16.85;;;10.30;;
24206;SDS011;12351;52.284;9.160;2023-05-21T08:18:19;13.98;;;10.82;;
24206;SDS011;12351;52.284;9.160;2023-05-21T08:21:13;13.78;;;10.55;;
24206;SDS011;12351;52.284;9.160;2023-05-21T08:24:03;16.40;;;11.57;;
24206;SDS011;12351;52.284;9.160;2023-05-21T08:26:55;14.23;;;11.03;;
24206;SDS011;12351;52.284;9.160;2023-05-21T08:29:44;12.20;;;10.00;;
24206;SDS011;12351;52.284;9.160;2023-05-21T08:32:35;14.83;;;11.43;;
24206;SDS011;12351;52.284;9.160;2023-05-21T08:35:26;15.10;;;12.40;;
24206;SDS011;12351;52.284;9.160;2023-05-21T08:38:14;14.28;;;11.70;;
24206;SDS011;12351;52.284;9.160;2023-05-21T08:41:06;15.00;;;12.03;;
24206;SDS011;12351;52.284;9.160;2023-05-21T08:43:55;14.15;;;11.75;;
24206;SDS011;12351;52.284;9.160;2023-05-21T08:46:48;17.40;;;11.70;;
24206;SDS011;12351;52.284;9.160;2023-05-21T08:49:39;15.08;;;11.68;;
24206;SDS011;12351;52.284;9.160;2023-05-21T08:52:30;16.45;;;12.43;;
24206;SDS011;12351;52.284;9.160;2023-05-21T08:55:18;13.70;;;12.13;;
24206;SDS011;12351;52.284;9.160;2023-05-21T08:58:10;18.02;;;13.10;;
24206;SDS011;12351;52.284;9.160;2023-05-21T09:01:00;15.80;;;11.80;;
24206;SDS011;12351;52.284;9.160;2023-05-21T09:03:50;17.80;;;12.47;;
24206;SDS011;12351;52.284;9.160;2023-05-21T09:06:43;16.12;;;12.50;;
24206;SDS011;12351;52.284;9.160;2023-05-21T09:09:31;15.23;;;12.55;;
24206;SDS011;12351;52.284;9.160;2023-05-21T09:15:12;18.87;;;12.68;;
24206;SDS011;12351;52.284;9.160;2023-05-21T09:18:02;17.50;;;13.38;;
24206;SDS011;12351;52.284;9.160;2023-05-21T09:20:52;18.07;;;13.68;;
24206;SDS011;12351;52.284;9.160;2023-05-21T09:23:44;17.35;;;13.32;;
24206;SDS011;12351;52.284;9.160;2023-05-21T09:26:34;17.40;;;12.85;;
24206;SDS011;12351;52.284;9.160;2023-05-21T09:29:26;15.43;;;13.15;;
24206;SDS011;12351;52.284;9.160;2023-05-21T09:32:18;16.60;;;14.45;;
24206;SDS011;12351;52.284;9.160;2023-05-21T09:35:08;16.40;;;14.03;;
24206;SDS011;12351;52.284;9.160;2023-05-21T09:37:59;16.97;;;14.10;;
24206;SDS011;12351;52.284;9.160;2023-05-21T09:40:49;18.77;;;14.95;;
24206;SDS011;12351;52.284;9.160;2023-05-21T09:43:37;19.67;;;14.18;;
24206;SDS011;12351;52.284;9.160;2023-05-21T09:49:22;19.12;;;15.28;;
24206;SDS011;12351;52.284;9.160;2023-05-21T09:52:11;19.12;;;15.40;;
24206;SDS011;12351;52.284;9.160;2023-05-21T09:55:05;19.48;;;14.85;;
24206;SDS011;12351;52.284;9.160;2023-05-21T09:57:53;20.30;;;14.25;;
24206;SDS011;12351;52.284;9.160;2023-05-21T10:00:40;21.93;;;15.43;;
24206;SDS011;12351;52.284;9.160;2023-05-21T10:03:32;24.87;;;16.62;;
24206;SDS011;12351;52.284;9.160;2023-05-21T10:06:26;19.67;;;15.48;;
24206;SDS011;12351;52.284;9.160;2023-05-21T10:09:17;20.68;;;16.12;;
24206;SDS011;12351;52.284;9.160;2023-05-21T10:12:06;20.30;;;16.70;;
24206;SDS011;12351;52.284;9.160;2023-05-21T10:14:58;22.98;;;15.83;;
24206;SDS011;12351;52.284;9.160;2023-05-21T10:17:48;20.68;;;16.80;;
24206;SDS011;12351;52.284;9.160;2023-05-21T10:20:36;19.87;;;16.73;;
24206;SDS011;12351;52.284;9.160;2023-05-21T10:23:25;18.75;;;15.53;;
24206;SDS011;12351;52.284;9.160;2023-05-21T10:26:17;19.90;;;16.23;;
24206;SDS011;12351;52.284;9.160;2023-05-21T10:29:08;24.02;;;17.45;;
24206;SDS011;12351;52.284;9.160;2023-05-21T10:31:58;21.50;;;16.65;;
24206;SDS011;12351;52.284;9.160;2023-05-21T10:34:48;21.20;;;17.62;;
24206;SDS011;12351;52.284;9.160;2023-05-21T10:37:40;19.40;;;16.70;;
24206;SDS011;12351;52.284;9.160;2023-05-21T10:40:33;21.50;;;16.67;;
24206;SDS011;12351;52.284;9.160;2023-05-21T10:49:10;19.15;;;16.20;;
24206;SDS011;12351;52.284;9.160;2023-05-21T11:00:28;19.65;;;16.57;;
24206;SDS011;12351;52.284;9.160;2023-05-21T11:03:19;20.60;;;17.12;;
24206;SDS011;12351;52.284;9.160;2023-05-21T11:06:10;20.82;;;17.67;;
24206;SDS011;12351;52.284;9.160;2023-05-21T11:11:53;19.00;;;17.00;;
24206;SDS011;12351;52.284;9.160;2023-05-21T11:14:54;18.87;;;16.32;;
24206;SDS011;12351;52.284;9.160;2023-05-21T11:17:37;21.97;;;17.67;;
24206;SDS011;12351;52.284;9.160;2023-05-21T11:20:31;20.27;;;16.67;;
24206;SDS011;12351;52.284;9.160;2023-05-21T11:23:19;21.93;;;16.17;;
24206;SDS011;12351;52.284;9.160;2023-05-21T11:26:11;20.30;;;16.10;;
24206;SDS011;12351;52.284;9.160;2023-05-21T11:34:47;20.95;;;16.50;;
24206;SDS011;12351;52.284;9.160;2023-05-21T11:37:36;19.52;;;15.85;;
24206;SDS011;12351;52.284;9.160;2023-05-21T11:40:30;16.97;;;15.18;;
24206;SDS011;12351;52.284;9.160;2023-05-21T11:43:20;17.57;;;15.63;;
24206;SDS011;12351;52.284;9.160;2023-05-21T11:46:09;20.45;;;16.57;;
24206;SDS011;12351;52.284;9.160;2023-05-21T11:49:03;19.98;;;15.93;;
24206;SDS011;12351;52.284;9.160;2023-05-21T11:51:54;20.97;;;16.00;;
24206;SDS011;12351;52.284;9.160;2023-05-21T11:54:45;18.17;;;15.25;;
24206;SDS011;12351;52.284;9.160;2023-05-21T11:57:35;17.93;;;15.33;;
24206;SDS011;12351;52.284;9.160;2023-05-21T12:00:28;20.40;;;14.93;;
24206;SDS011;12351;52.284;9.160;2023-05-21T12:03:17;20.10;;;15.67;;
24206;SDS011;12351;52.284;9.160;2023-05-21T12:06:08;18.47;;;15.37;;
24206;SDS011;12351;52.284;9.160;2023-05-21T12:08:59;17.15;;;14.68;;
24206;SDS011;12351;52.284;9.160;2023-05-21T12:11:50;18.20;;;16.30;;
24206;SDS011;12351;52.284;9.160;2023-05-21T12:14:38;21.23;;;15.83;;
24206;SDS011;12351;52.284;9.160;2023-05-21T12:17:32;19.37;;;15.23;;
24206;SDS011;12351;52.284;9.160;2023-05-21T12:20:24;16.27;;;14.25;;
24206;SDS011;12351;52.284;9.160;2023-05-21T12:26:05;15.95;;;14.13;;
24206;SDS011;12351;52.284;9.160;2023-05-21T12:28:53;17.25;;;13.80;;
24206;SDS011;12351;52.284;9.160;2023-05-21T12:37:25;17.33;;;14.53;;
24206;SDS011;12351;52.284;9.160;2023-05-21T12:40:14;16.17;;;14.03;;
24206;SDS011;12351;52.284;9.160;2023-05-21T12:43:06;16.43;;;14.60;;
24206;SDS011;12351;52.284;9.160;2023-05-21T12:45:55;16.13;;;13.57;;
24206;SDS011;12351;52.284;9.160;2023-05-21T12:48:48;16.20;;;13.45;;
24206;SDS011;12351;52.284;9.160;2023-05-21T12:51:37;15.27;;;13.63;;
24206;SDS011;12351;52.284;9.160;2023-05-21T12:54:29;15.03;;;12.93;;
24206;SDS011;12351;52.284;9.160;2023-05-21T12:57:18;16.03;;;14.33;;
24206;SDS011;12351;52.284;9.160;2023-05-21T13:00:08;15.53;;;13.83;;
24206;SDS011;12351;52.284;9.160;2023-05-21T13:02:58;15.87;;;13.57;;
24206;SDS011;12351;52.284;9.160;2023-05-21T13:05:56;15.53;;;13.73;;
24206;SDS011;12351;52.284;9.160;2023-05-21T13:08:40;16.80;;;13.63;;
24206;SDS011;12351;52.284;9.160;2023-05-21T13:11:34;17.40;;;13.77;;
24206;SDS011;12351;52.284;9.160;2023-05-21T13:14:23;15.38;;;12.88;;
24206;SDS011;12351;52.284;9.160;2023-05-21T13:17:16;15.53;;;13.73;;
24206;SDS011;12351;52.284;9.160;2023-05-21T13:22:58;15.87;;;12.50;;
24206;SDS011;12351;52.284;9.160;2023-05-21T13:25:47;14.13;;;12.73;;
24206;SDS011;12351;52.284;9.160;2023-05-21T13:28:38;13.97;;;12.27;;
24206;SDS011;12351;52.284;9.160;2023-05-21T13:31:30;16.57;;;12.80;;
24206;SDS011;12351;52.284;9.160;2023-05-21T13:34:21;17.47;;;13.30;;
24206;SDS011;12351;52.284;9.160;2023-05-21T13:37:11;16.53;;;13.30;;
24206;SDS011;12351;52.284;9.160;2023-05-21T13:40:04;16.07;;;12.37;;
24206;SDS011;12351;52.284;9.160;2023-05-21T13:42:53;16.10;;;12.47;;
24206;SDS011;12351;52.284;9.160;2023-05-21T13:45:46;14.77;;;13.10;;
24206;SDS011;12351;52.284;9.160;2023-05-21T13:48:35;14.03;;;12.53;;
24206;SDS011;12351;52.284;9.160;2023-05-21T13:51:25;14.00;;;12.50;;
24206;SDS011;12351;52.284;9.160;2023-05-21T13:54:16;12.90;;;11.63;;
24206;SDS011;12351;52.284;9.160;2023-05-21T13:57:07;14.80;;;12.23;;
24206;SDS011;12351;52.284;9.160;2023-05-21T13:59:58;14.13;;;12.43;;
24206;SDS011;12351;52.284;9.160;2023-05-21T14:02:49;13.93;;;12.37;;
24206;SDS011;12351;52.284;9.160;2023-05-21T14:05:37;13.83;;;12.23;;
24206;SDS011;12351;52.284;9.160;2023-05-21T14:08:30;13.67;;;12.27;;
24206;SDS011;12351;52.284;9.160;2023-05-21T14:11:19;13.97;;;12.23;;
24206;SDS011;12351;52.284;9.160;2023-05-21T14:14:09;13.27;;;11.30;;
24206;SDS011;12351;52.284;9.160;2023-05-21T14:17:00;14.27;;;12.17;;
24206;SDS011;12351;52.284;9.160;2023-05-21T14:19:49;13.73;;;12.07;;
24206;SDS011;12351;52.284;9.160;2023-05-21T14:22:38;15.47;;;12.80;;
24206;SDS011;12351;52.284;9.160;2023-05-21T14:25:31;14.47;;;12.90;;
24206;SDS011;12351;52.284;9.160;2023-05-21T14:28:20;13.83;;;12.17;;
24206;SDS011;12351;52.284;9.160;2023-05-21T14:31:11;14.67;;;12.33;;
24206;SDS011;12351;52.284;9.160;2023-05-21T14:34:01;13.63;;;12.20;;
24206;SDS011;12351;52.284;9.160;2023-05-21T14:36:52;15.07;;;13.23;;
24206;SDS011;12351;52.284;9.160;2023-05-21T14:39:45;14.53;;;12.80;;
24206;SDS011;12351;52.284;9.160;2023-05-21T14:42:37;14.93;;;12.33;;
24206;SDS011;12351;52.284;9.160;2023-05-21T14:45:24;14.90;;;13.40;;
24206;SDS011;12351;52.284;9.160;2023-05-21T14:48:13;14.73;;;12.93;;
24206;SDS011;12351;52.284;9.160;2023-05-21T14:51:04;14.07;;;12.57;;
24206;SDS011;12351;52.284;9.160;2023-05-21T14:53:57;13.00;;;11.67;;
24206;SDS011;12351;52.284;9.160;2023-05-21T14:56:48;15.53;;;12.70;;
24206;SDS011;12351;52.284;9.160;2023-05-21T14:59:37;13.57;;;12.17;;
24206;SDS011;12351;52.284;9.160;2023-05-21T15:02:27;13.20;;;11.50;;
24206;SDS011;12351;52.284;9.160;2023-05-21T15:05:18;13.43;;;11.67;;
24206;SDS011;12351;52.284;9.160;2023-05-21T15:08:08;13.63;;;11.60;;
24206;SDS011;12351;52.284;9.160;2023-05-21T15:11:00;15.63;;;12.05;;
24206;SDS011;12351;52.284;9.160;2023-05-21T15:13:50;17.40;;;12.37;;
24206;SDS011;12351;52.284;9.160;2023-05-21T15:16:41;13.80;;;11.40;;
24206;SDS011;12351;52.284;9.160;2023-05-21T15:19:28;13.57;;;11.40;;
24206;SDS011;12351;52.284;9.160;2023-05-21T15:22:22;12.87;;;11.23;;
24206;SDS011;12351;52.284;9.160;2023-05-21T15:25:15;12.57;;;11.37;;
24206;SDS011;12351;52.284;9.160;2023-05-21T15:28:05;14.77;;;11.63;;
24206;SDS011;12351;52.284;9.160;2023-05-21T15:30:55;14.40;;;11.67;;
24206;SDS011;12351;52.284;9.160;2023-05-21T15:33:46;13.17;;;11.87;;
24206;SDS011;12351;52.284;9.160;2023-05-21T15:36:35;13.60;;;11.87;;
24206;SDS011;12351;52.284;9.160;2023-05-21T15:39:28;14.73;;;11.88;;
24206;SDS011;12351;52.284;9.160;2023-05-21T15:42:18;13.30;;;11.67;;
24206;SDS011;12351;52.284;9.160;2023-05-21T15:45:11;15.47;;;11.83;;
24206;SDS011;12351;52.284;9.160;2023-05-21T15:48:02;12.47;;;11.17;;
24206;SDS011;12351;52.284;9.160;2023-05-21T15:50:53;13.37;;;11.50;;
24206;SDS011;12351;52.284;9.160;2023-05-21T15:53:44;13.57;;;12.17;;
24206;SDS011;12351;52.284;9.160;2023-05-21T15:56:31;13.40;;;11.73;;
24206;SDS011;12351;52.284;9.160;2023-05-21T15:59:24;12.73;;;11.43;;
24206;SDS011;12351;52.284;9.160;2023-05-21T16:02:15;13.47;;;11.43;;
24206;SDS011;12351;52.284;9.160;2023-05-21T16:05:03;13.70;;;12.23;;
24206;SDS011;12351;52.284;9.160;2023-05-21T16:07:52;14.53;;;12.60;;
24206;SDS011;12351;52.284;9.160;2023-05-21T16:10:44;19.07;;;13.20;;
24206;SDS011;12351;52.284;9.160;2023-05-21T16:13:31;15.13;;;13.60;;
24206;SDS011;12351;52.284;9.160;2023-05-21T16:16:19;14.03;;;12.43;;
24206;SDS011;12351;52.284;9.160;2023-05-21T16:19:08;15.57;;;13.97;;
24206;SDS011;12351;52.284;9.160;2023-05-21T16:22:01;45.73;;;41.67;;
24206;SDS011;12351;52.284;9.160;2023-05-21T16:24:48;14.37;;;12.97;;
24206;SDS011;12351;52.284;9.160;2023-05-21T16:27:40;16.00;;;14.30;;
24206;SDS011;12351;52.284;9.160;2023-05-21T16:30:31;14.67;;;12.43;;
24206;SDS011;12351;52.284;9.160;2023-05-21T16:33:19;14.73;;;12.90;;
24206;SDS011;12351;52.284;9.160;2023-05-21T16:36:08;14.83;;;13.30;;
24206;SDS011;12351;52.284;9.160;2023-05-21T16:39:00;14.30;;;12.90;;
24206;SDS011;12351;52.284;9.160;2023-05-21T16:41:48;19.23;;;13.17;;
24206;SDS011;12351;52.284;9.160;2023-05-21T16:44:39;14.47;;;12.97;;
24206;SDS011;12351;52.284;9.160;2023-05-21T16:47:27;14.63;;;13.17;;
24206;SDS011;12351;52.284;9.160;2023-05-21T16:50:20;14.73;;;13.20;;
24206;SDS011;12351;52.284;9.160;2023-05-21T16:53:08;14.03;;;12.53;;
24206;SDS011;12351;52.284;9.160;2023-05-21T16:56:02;16.53;;;12.93;;
24206;SDS011;12351;52.284;9.160;2023-05-21T16:58:53;16.33;;;13.70;;
24206;SDS011;12351;52.284;9.160;2023-05-21T17:01:43;16.73;;;13.72;;
24206;SDS011;12351;52.284;9.160;2023-05-21T17:04:34;34.60;;;30.90;;
24206;SDS011;12351;52.284;9.160;2023-05-21T17:07:25;19.73;;;17.07;;
24206;SDS011;12351;52.284;9.160;2023-05-21T17:10:15;24.93;;;22.33;;
24206;SDS011;12351;52.284;9.160;2023-05-21T17:13:06;54.90;;;44.40;;
24206;SDS011;12351;52.284;9.160;2023-05-21T17:15:57;30.25;;;20.08;;
24206;SDS011;12351;52.284;9.160;2023-05-21T17:18:47;25.13;;;19.93;;
24206;SDS011;12351;52.284;9.160;2023-05-21T17:21:36;38.77;;;24.93;;
24206;SDS011;12351;52.284;9.160;2023-05-21T17:24:29;14.97;;;13.37;;
24206;SDS011;12351;52.284;9.160;2023-05-21T17:27:20;15.73;;;14.23;;
24206;SDS011;12351;52.284;9.160;2023-05-21T17:30:10;20.35;;;18.30;;
24206;SDS011;12351;52.284;9.160;2023-05-21T17:32:59;29.23;;;26.83;;
24206;SDS011;12351;52.284;9.160;2023-05-21T17:35:51;14.93;;;13.43;;
24206;SDS011;12351;52.284;9.160;2023-05-21T17:38:41;18.03;;;14.00;;
24206;SDS011;12351;52.284;9.160;2023-05-21T17:41:32;17.20;;;13.90;;